Terminal Aerodrome Forecast
Issued by NWS Caribou, ME

Home | Current Version | Previous Version | Text Only | Print | Product List | Glossary On
Versions: 1 2 3 4 5 6 7 8 9 10 11 12 13 14 15
000
FTUS41 KCAR 211400 AAA
TAFCAR
TAF AMD
KCAR 211428Z 2114/2212 19010G20KT P6SM SCT028
     FM220000 18013KT P6SM VCSH OVC008
     FM220400 16009KT 3SM -SHRA BR OVC008=

USA.gov is the U.S. government's official web portal to all federal, state and local government web resources and services.